createdAt,value
2018-12-26T00:01:07.556Z,7.83
2018-12-26T00:03:35.906Z,7.17
2018-12-26T00:06:04.137Z,6.90
2018-12-26T00:08:32.460Z,7.90
2018-12-26T00:11:00.710Z,7.70
2018-12-26T00:13:29.643Z,6.50
2018-12-26T00:15:59.582Z,6.97
2018-12-26T00:18:27.874Z,6.33
2018-12-26T00:20:56.130Z,7.70
2018-12-26T00:23:24.468Z,7.37
2018-12-26T00:25:52.819Z,6.80
2018-12-26T00:28:21.071Z,8.43
2018-12-26T00:30:49.317Z,8.73
2018-12-26T00:33:17.621Z,9.10
2018-12-26T00:38:33.442Z,8.00
2018-12-26T00:41:01.815Z,8.18
2018-12-26T00:43:30.097Z,8.98
2018-12-26T00:45:58.558Z,9.35
2018-12-26T00:48:26.871Z,9.70
2018-12-26T00:50:55.216Z,8.33
2018-12-26T00:53:23.546Z,8.95
2018-12-26T00:55:51.783Z,8.50
2018-12-26T00:58:20.204Z,9.50
2018-12-26T01:00:48.524Z,7.80
2018-12-26T01:03:16.791Z,8.00
2018-12-26T01:05:45.108Z,7.78
2018-12-26T01:08:13.423Z,8.00
2018-12-26T01:10:41.732Z,7.43
2018-12-26T01:13:10.115Z,6.85
2018-12-26T01:15:38.378Z,7.00
2018-12-26T01:20:48.970Z,7.20
2018-12-26T01:23:17.245Z,6.40
2018-12-26T01:25:45.620Z,6.80
2018-12-26T01:28:13.894Z,7.33
2018-12-26T01:30:42.168Z,6.20
2018-12-26T01:33:10.455Z,6.73
2018-12-26T01:35:38.712Z,6.40
2018-12-26T01:38:07.050Z,6.60
2018-12-26T01:40:35.366Z,6.80
2018-12-26T01:43:03.708Z,6.90
2018-12-26T01:45:31.922Z,7.30
2018-12-26T01:48:00.319Z,7.00
2018-12-26T01:50:28.702Z,6.80
2018-12-26T01:52:56.955Z,6.00
2018-12-26T01:55:25.229Z,6.60
2018-12-26T01:57:53.528Z,9.30
2018-12-26T02:00:21.779Z,7.53
2018-12-26T02:02:50.074Z,8.63
2018-12-26T02:05:18.331Z,8.40
2018-12-26T02:07:46.623Z,8.67
2018-12-26T02:10:14.925Z,8.20
2018-12-26T02:12:43.153Z,8.97
2018-12-26T02:15:11.461Z,9.20
2018-12-26T02:17:39.828Z,9.17
2018-12-26T02:20:08.108Z,9.60
2018-12-26T02:22:36.414Z,7.80
2018-12-26T02:25:04.687Z,8.05
2018-12-26T02:27:32.935Z,7.90
2018-12-26T02:30:01.204Z,9.10
2018-12-26T02:32:30.416Z,8.93
2018-12-26T02:37:46.864Z,7.20
2018-12-26T02:40:15.103Z,8.93
2018-12-26T02:42:43.488Z,7.67
2018-12-26T02:45:11.748Z,7.47
2018-12-26T02:53:09.140Z,8.38
2018-12-26T02:55:37.433Z,8.10
2018-12-26T02:58:05.695Z,7.83
2018-12-26T03:00:34.019Z,8.40
2018-12-26T03:03:02.355Z,7.85
2018-12-26T03:05:30.627Z,7.92
2018-12-26T03:07:58.892Z,7.80
2018-12-26T03:10:27.190Z,7.55
2018-12-26T03:12:55.573Z,6.95
2018-12-26T03:15:23.841Z,7.15
2018-12-26T03:17:52.119Z,7.20
2018-12-26T03:20:20.487Z,6.33
2018-12-26T03:22:48.867Z,7.40
2018-12-26T03:25:17.171Z,7.60
2018-12-26T03:27:45.520Z,6.87
2018-12-26T03:30:13.784Z,6.70
2018-12-26T03:32:42.114Z,8.48
2018-12-26T03:35:10.456Z,6.97
2018-12-26T03:37:38.784Z,7.33
2018-12-26T03:40:07.829Z,7.05
2018-12-26T03:42:36.138Z,7.30
2018-12-26T03:45:04.367Z,7.10
2018-12-26T03:47:32.744Z,6.57
2018-12-26T03:50:01.150Z,8.60
2018-12-26T03:52:29.540Z,6.77
2018-12-26T03:54:57.881Z,7.03
2018-12-26T03:57:26.160Z,8.53
2018-12-26T03:59:54.522Z,7.17
2018-12-26T04:02:22.839Z,7.17
2018-12-26T04:04:51.113Z,8.77
2018-12-26T04:07:19.373Z,6.93
2018-12-26T04:10:08.019Z,9.33
2018-12-26T04:12:36.368Z,8.60
2018-12-26T04:15:04.944Z,9.05
2018-12-26T04:17:33.289Z,8.45
2018-12-26T04:20:01.652Z,9.00
2018-12-26T04:22:29.918Z,8.00
2018-12-26T04:24:58.318Z,8.43
2018-12-26T04:27:26.567Z,8.50
2018-12-26T04:29:54.861Z,8.37
2018-12-26T04:32:23.245Z,8.50
2018-12-26T04:34:51.499Z,8.00
2018-12-26T04:37:19.799Z,7.73
2018-12-26T04:39:48.086Z,7.00
2018-12-26T04:42:16.612Z,7.73
2018-12-26T04:44:44.810Z,7.80
2018-12-26T04:47:13.101Z,8.87
2018-12-26T04:49:41.398Z,8.07
2018-12-26T04:52:09.648Z,7.93
2018-12-26T04:54:37.968Z,9.33
2018-12-26T04:57:06.194Z,8.80
2018-12-26T04:59:34.488Z,8.73
2018-12-26T05:02:02.743Z,8.80
2018-12-26T05:04:31.143Z,10.10
2018-12-26T05:06:59.412Z,9.30
2018-12-26T05:09:27.703Z,10.10
2018-12-26T05:11:56.076Z,9.70
2018-12-26T05:14:24.389Z,12.10
2018-12-26T05:16:52.633Z,8.90
2018-12-26T05:19:21.046Z,10.00
2018-12-26T05:21:50.876Z,9.30
2018-12-26T05:24:19.082Z,10.30
2018-12-26T05:26:47.351Z,9.90
2018-12-26T05:29:15.637Z,9.23
2018-12-26T05:31:43.902Z,9.30
2018-12-26T05:34:12.175Z,8.73
2018-12-26T05:36:40.482Z,8.20
2018-12-26T05:41:51.045Z,7.97
2018-12-26T05:44:19.426Z,9.10
2018-12-26T05:46:47.705Z,8.90
2018-12-26T05:49:16.098Z,7.47
2018-12-26T05:51:44.467Z,7.70
2018-12-26T05:54:12.725Z,8.97
2018-12-26T05:56:41.021Z,7.67
2018-12-26T05:59:09.268Z,7.73
2018-12-26T06:01:37.596Z,8.60
2018-12-26T06:04:05.938Z,8.80
2018-12-26T06:06:34.208Z,8.47
2018-12-26T06:09:02.521Z,8.77
2018-12-26T06:11:30.888Z,8.83
2018-12-26T06:13:59.136Z,8.93
2018-12-26T06:16:27.427Z,9.00
2018-12-26T06:18:55.816Z,9.93
2018-12-26T06:21:24.078Z,10.50
2018-12-26T06:23:54.762Z,10.93
2018-12-26T06:26:23.411Z,10.00
2018-12-26T06:28:51.666Z,9.10
2018-12-26T06:31:19.955Z,8.87
2018-12-26T06:33:48.211Z,8.30
2018-12-26T06:36:16.512Z,9.80
2018-12-26T06:38:44.820Z,9.07
2018-12-26T06:41:13.162Z,9.47
2018-12-26T06:43:41.725Z,8.10
2018-12-26T06:46:10.012Z,7.73
2018-12-26T06:48:38.293Z,8.90
2018-12-26T06:51:06.579Z,10.07
2018-12-26T06:53:34.836Z,10.20
2018-12-26T06:56:03.144Z,10.17
2018-12-26T06:58:31.397Z,9.60
2018-12-26T07:00:59.717Z,10.17
2018-12-26T07:03:27.943Z,9.00
2018-12-26T07:05:56.231Z,9.27
2018-12-26T07:08:24.737Z,8.37
2018-12-26T07:10:52.976Z,9.90
2018-12-26T07:13:21.256Z,9.30
2018-12-26T07:15:49.557Z,9.07
2018-12-26T07:18:17.815Z,9.03
2018-12-26T07:20:46.100Z,12.73
2018-12-26T07:23:14.460Z,10.10
2018-12-26T07:25:42.733Z,9.20
2018-12-26T07:28:11.040Z,9.77
2018-12-26T07:30:39.409Z,10.40
2018-12-26T07:33:07.773Z,9.87
2018-12-26T07:35:36.049Z,10.30
2018-12-26T07:40:46.700Z,10.67
2018-12-26T07:43:15.028Z,10.40
2018-12-26T07:45:43.284Z,10.20
2018-12-26T07:48:12.076Z,10.87
2018-12-26T07:50:40.401Z,11.00
2018-12-26T07:53:08.744Z,11.00
2018-12-26T07:55:37.038Z,10.23
2018-12-26T07:58:05.276Z,11.13
2018-12-26T08:00:33.580Z,11.07
2018-12-26T08:03:01.856Z,11.03
2018-12-26T08:05:30.214Z,10.33
2018-12-26T08:07:58.507Z,10.60
2018-12-26T08:10:26.783Z,10.93
2018-12-26T08:12:55.143Z,10.83
2018-12-26T08:15:23.449Z,11.50
2018-12-26T08:18:05.535Z,11.33
2018-12-26T08:20:33.887Z,10.90
2018-12-26T08:23:02.216Z,12.13
2018-12-26T08:25:30.449Z,12.73
2018-12-26T08:27:58.756Z,13.67
2018-12-26T08:30:27.120Z,13.40
2018-12-26T08:35:42.744Z,14.60
2018-12-26T08:38:11.128Z,15.00
2018-12-26T08:40:39.404Z,16.23
2018-12-26T08:43:07.647Z,13.83
2018-12-26T08:45:36.032Z,19.60
2018-12-26T08:48:04.333Z,14.33
2018-12-26T08:50:32.591Z,16.00
2018-12-26T08:53:00.849Z,21.10
2018-12-26T08:55:29.126Z,14.40
2018-12-26T09:00:39.199Z,15.03
2018-12-26T09:03:07.525Z,14.83
2018-12-26T09:05:35.761Z,15.07
2018-12-26T09:08:04.129Z,14.30
2018-12-26T09:10:32.436Z,14.67
2018-12-26T09:13:00.669Z,15.20
2018-12-26T09:15:28.952Z,14.93
2018-12-26T09:17:57.431Z,15.17
2018-12-26T09:20:25.830Z,16.70
2018-12-26T09:25:43.036Z,44.57
2018-12-26T09:28:11.451Z,23.60
2018-12-26T09:30:39.704Z,15.67
2018-12-26T09:33:07.992Z,15.67
2018-12-26T09:35:36.265Z,15.20
2018-12-26T09:38:04.640Z,16.50
2018-12-26T09:40:33.046Z,15.77
2018-12-26T09:43:01.500Z,16.60
2018-12-26T09:45:29.868Z,17.47
2018-12-26T09:47:58.165Z,16.43
2018-12-26T09:50:26.423Z,17.37
2018-12-26T09:52:57.353Z,17.00
2018-12-26T09:55:27.734Z,20.70
2018-12-26T09:57:56.977Z,18.50
2018-12-26T10:00:25.313Z,18.03
2018-12-26T10:02:53.584Z,19.07
2018-12-26T10:05:22.625Z,18.20
2018-12-26T10:07:50.938Z,18.87
2018-12-26T10:10:19.289Z,18.07
2018-12-26T10:15:34.926Z,17.40
2018-12-26T10:20:45.551Z,17.00
2018-12-26T10:23:14.066Z,18.37
2018-12-26T10:25:42.385Z,17.80
2018-12-26T10:28:10.776Z,17.57
2018-12-26T10:30:39.127Z,17.60
2018-12-26T10:33:07.400Z,18.23
2018-12-26T10:35:35.649Z,18.57
2018-12-26T10:38:04.057Z,18.03
2018-12-26T10:40:32.309Z,33.23
2018-12-26T10:43:00.700Z,27.43
2018-12-26T10:45:28.968Z,16.90
2018-12-26T10:47:57.266Z,18.60
2018-12-26T10:50:25.507Z,17.70
2018-12-26T10:52:53.769Z,17.00
2018-12-26T10:55:22.071Z,17.73
2018-12-26T10:57:50.521Z,19.80
2018-12-26T11:00:18.816Z,18.60
2018-12-26T11:02:47.236Z,20.40
2018-12-26T11:05:15.581Z,20.87
2018-12-26T11:10:26.265Z,15.57
2018-12-26T11:12:54.599Z,16.10
2018-12-26T11:15:23.001Z,18.10
2018-12-26T11:17:51.337Z,17.40
2018-12-26T11:20:19.689Z,17.77
2018-12-26T11:22:47.936Z,18.43
2018-12-26T11:25:16.256Z,17.10
2018-12-26T11:27:44.492Z,19.37
2018-12-26T11:30:12.787Z,17.60
2018-12-26T11:32:41.059Z,17.10
2018-12-26T11:35:09.345Z,16.70
2018-12-26T11:37:37.610Z,16.43
2018-12-26T11:40:07.238Z,17.50
2018-12-26T11:42:35.783Z,15.77
2018-12-26T11:48:11.723Z,16.27
2018-12-26T11:50:39.945Z,15.17
2018-12-26T11:53:08.225Z,16.53
2018-12-26T11:55:36.613Z,16.17
2018-12-26T11:58:05.003Z,20.93
2018-12-26T12:00:33.299Z,21.60
2018-12-26T12:03:01.613Z,16.27
2018-12-26T12:05:29.932Z,15.90
2018-12-26T12:07:58.196Z,15.70
2018-12-26T12:10:26.571Z,21.43
2018-12-26T12:12:54.943Z,18.93
2018-12-26T12:15:23.190Z,17.77
2018-12-26T12:17:51.482Z,15.10
2018-12-26T12:20:19.766Z,18.93
2018-12-26T12:22:48.023Z,17.20
2018-12-26T12:25:16.341Z,19.40
2018-12-26T12:27:44.736Z,18.13
2018-12-26T12:30:13.034Z,19.53
2018-12-26T12:32:41.363Z,19.57
2018-12-26T12:35:09.748Z,22.40
2018-12-26T12:37:38.064Z,17.77
2018-12-26T12:40:07.470Z,15.17
2018-12-26T12:42:35.796Z,20.70
2018-12-26T12:45:04.063Z,15.40
2018-12-26T12:47:32.360Z,15.77
2018-12-26T12:50:00.630Z,17.50
2018-12-26T12:52:28.966Z,15.33
2018-12-26T12:54:57.340Z,16.27
2018-12-26T12:57:25.657Z,14.60
2018-12-26T12:59:53.959Z,15.00
2018-12-26T13:02:22.193Z,16.23
2018-12-26T13:04:50.496Z,16.77
2018-12-26T13:07:18.761Z,17.20
2018-12-26T13:09:47.177Z,16.50
2018-12-26T13:12:15.520Z,16.90
2018-12-26T13:14:43.809Z,16.07
2018-12-26T13:19:54.498Z,15.50
2018-12-26T13:22:22.781Z,16.80
2018-12-26T13:24:51.038Z,17.57
2018-12-26T13:27:19.596Z,26.43
2018-12-26T13:29:53.763Z,18.97
2018-12-26T13:32:18.034Z,18.93
2018-12-26T13:34:46.305Z,16.13
2018-12-26T13:37:14.657Z,14.47
2018-12-26T13:39:42.937Z,14.67
2018-12-26T13:44:53.573Z,12.77
2018-12-26T13:47:21.941Z,13.80
2018-12-26T13:49:50.177Z,15.30
2018-12-26T13:52:18.471Z,14.57
2018-12-26T13:54:46.745Z,14.00
2018-12-26T13:57:15.014Z,12.33
2018-12-26T13:59:43.298Z,13.20
2018-12-26T14:02:11.645Z,13.37
2018-12-26T14:04:39.978Z,14.40
2018-12-26T14:07:08.232Z,15.83
2018-12-26T14:09:37.954Z,17.50
2018-12-26T14:12:07.651Z,16.00
2018-12-26T14:14:37.168Z,14.90
2018-12-26T14:19:49.730Z,15.93
2018-12-26T14:22:19.157Z,15.07
2018-12-26T14:25:07.374Z,14.80
2018-12-26T14:27:36.759Z,13.63
2018-12-26T14:30:11.133Z,13.07
2018-12-26T14:32:35.170Z,11.70
2018-12-26T14:35:03.507Z,10.40
2018-12-26T14:37:31.751Z,13.73
2018-12-26T14:40:00.043Z,18.43
2018-12-26T14:42:28.431Z,17.27
2018-12-26T14:44:56.737Z,14.37
2018-12-26T14:47:25.088Z,14.90
2018-12-26T14:49:53.421Z,14.20
2018-12-26T14:52:21.760Z,13.47
2018-12-26T14:54:50.125Z,12.60
2018-12-26T14:57:18.385Z,11.73
2018-12-26T14:59:46.697Z,11.50
2018-12-26T15:02:31.925Z,12.57
2018-12-26T15:04:46.502Z,12.50
2018-12-26T15:07:14.847Z,12.27
2018-12-26T15:09:43.318Z,11.90
2018-12-26T15:12:11.645Z,12.40
2018-12-26T15:14:40.021Z,10.00
2018-12-26T15:17:08.403Z,11.83
2018-12-26T15:19:36.806Z,10.90
2018-12-26T15:22:05.136Z,11.27
2018-12-26T15:24:33.476Z,10.50
2018-12-26T15:27:01.705Z,9.60
2018-12-26T15:32:12.657Z,9.80
2018-12-26T15:34:41.081Z,9.40
2018-12-26T15:37:09.329Z,9.90
2018-12-26T15:39:37.625Z,10.43
2018-12-26T15:42:05.969Z,11.00
2018-12-26T15:44:35.713Z,11.90
2018-12-26T15:47:23.800Z,11.40
2018-12-26T15:49:53.756Z,10.43
2018-12-26T15:52:23.687Z,10.57
2018-12-26T15:54:53.623Z,10.73
2018-12-26T15:57:23.110Z,15.83
2018-12-26T16:02:41.243Z,12.60
2018-12-26T16:05:10.929Z,12.13
2018-12-26T16:07:40.786Z,11.23
2018-12-26T16:10:10.812Z,10.10
2018-12-26T16:15:28.893Z,10.37
2018-12-26T16:17:58.521Z,11.60
2018-12-26T16:20:28.406Z,11.70
2018-12-26T16:22:58.181Z,13.60
2018-12-26T16:28:15.860Z,13.13
2018-12-26T16:33:29.412Z,14.43
2018-12-26T16:35:59.006Z,15.10
2018-12-26T16:38:28.595Z,13.93
2018-12-26T16:40:58.323Z,15.20
2018-12-26T16:43:28.264Z,14.90
2018-12-26T16:45:57.814Z,11.60
2018-12-26T16:48:27.224Z,11.40
2018-12-26T16:53:45.319Z,12.43
2018-12-26T16:56:15.084Z,10.90
2018-12-26T16:58:44.923Z,12.10
2018-12-26T17:01:14.982Z,12.37
2018-12-26T17:04:02.994Z,12.50
2018-12-26T17:09:21.022Z,10.25
2018-12-26T17:14:33.674Z,11.93
2018-12-26T17:17:03.951Z,10.70
2018-12-26T17:19:33.976Z,11.90
2018-12-26T17:22:03.565Z,11.17
2018-12-26T17:24:33.568Z,11.10
2018-12-26T17:27:04.260Z,11.70
2018-12-26T17:29:33.911Z,11.80
2018-12-26T17:32:03.675Z,10.93
2018-12-26T17:34:33.578Z,11.63
2018-12-26T17:37:03.586Z,11.80
2018-12-26T17:39:33.500Z,10.90
2018-12-26T17:42:03.462Z,11.90
2018-12-26T17:44:33.373Z,10.90
2018-12-26T17:47:03.452Z,12.20
2018-12-26T17:49:33.139Z,11.50
2018-12-26T17:55:06.949Z,11.33
2018-12-26T17:57:41.574Z,12.47
2018-12-26T18:00:29.625Z,13.30
2018-12-26T18:02:59.495Z,12.50
2018-12-26T18:05:29.372Z,13.30
2018-12-26T18:07:59.325Z,13.25
2018-12-26T18:10:28.899Z,14.23
2018-12-26T18:12:58.563Z,14.15
2018-12-26T18:15:28.561Z,41.80
2018-12-26T18:17:58.659Z,26.68
2018-12-26T18:20:28.453Z,21.45
2018-12-26T18:22:57.959Z,17.90
2018-12-26T18:25:29.336Z,17.27
2018-12-26T18:27:58.924Z,17.65
2018-12-26T18:30:28.547Z,17.05
2018-12-26T18:38:22.697Z,16.60
2018-12-26T18:40:50.959Z,15.93
2018-12-26T18:46:41.608Z,14.55
2018-12-26T18:49:09.691Z,15.45
2018-12-26T18:51:37.786Z,13.80
2018-12-26T18:54:05.772Z,13.43
2018-12-26T18:56:33.723Z,14.33
2018-12-26T18:59:01.717Z,12.33
2018-12-26T19:01:30.700Z,13.58
2018-12-26T19:06:41.499Z,12.03
2018-12-26T19:09:09.696Z,12.45
2018-12-26T19:11:37.817Z,13.08
2018-12-26T19:14:05.806Z,15.28
2018-12-26T19:16:33.894Z,14.98
2018-12-26T19:19:01.831Z,12.45
2018-12-26T19:21:29.819Z,15.25
2018-12-26T19:23:57.796Z,12.85
2018-12-26T19:26:25.903Z,11.55
2018-12-26T19:28:53.917Z,13.28
2018-12-26T19:31:21.870Z,15.28
2018-12-26T19:33:49.862Z,18.65
2018-12-26T19:36:17.835Z,15.15
2018-12-26T19:38:45.798Z,18.32
2018-12-26T19:41:13.766Z,15.75
2018-12-26T19:43:41.858Z,16.50
2018-12-26T19:46:09.889Z,16.32
2018-12-26T19:48:38.185Z,14.43
2018-12-26T19:51:06.201Z,14.43
2018-12-26T19:53:34.245Z,14.23
2018-12-26T19:56:02.471Z,13.00
2018-12-26T19:58:30.633Z,13.32
2018-12-26T20:00:58.569Z,15.78
2018-12-26T20:03:26.698Z,15.23
2018-12-26T20:05:54.761Z,15.45
2018-12-26T20:08:22.713Z,16.20
2018-12-26T20:10:50.659Z,15.30
2018-12-26T20:13:18.592Z,15.53
2018-12-26T20:15:46.589Z,15.23
2018-12-26T20:18:15.003Z,13.48
2018-12-26T20:20:43.058Z,12.30
2018-12-26T20:23:10.975Z,11.63
2018-12-26T20:25:38.982Z,12.35
2018-12-26T20:28:07.232Z,12.40
2018-12-26T20:30:35.334Z,11.50
2018-12-26T20:33:03.440Z,10.90
2018-12-26T20:35:31.444Z,14.43
2018-12-26T20:37:59.485Z,15.10
2018-12-26T20:40:27.534Z,14.80
2018-12-26T20:42:55.450Z,18.12
2018-12-26T20:45:23.488Z,15.32
2018-12-26T20:47:51.416Z,12.30
2018-12-26T20:50:19.464Z,17.55
2018-12-26T20:52:47.436Z,14.55
2018-12-26T20:55:15.421Z,16.55
2018-12-26T20:57:43.353Z,17.77
2018-12-26T21:00:11.324Z,16.32
2018-12-26T21:02:39.319Z,17.12
2018-12-26T21:05:07.910Z,16.23
2018-12-26T21:10:17.956Z,15.35
2018-12-26T21:12:45.942Z,14.80
2018-12-26T21:15:13.876Z,14.80
2018-12-26T21:17:41.865Z,12.98
2018-12-26T21:20:09.854Z,11.18
2018-12-26T21:22:37.992Z,16.27
2018-12-26T21:25:06.715Z,15.00
2018-12-26T21:27:34.655Z,14.50
2018-12-26T21:30:02.757Z,14.03
2018-12-26T21:32:30.799Z,14.90
2018-12-26T21:34:58.805Z,15.20
2018-12-26T21:37:26.763Z,15.58
2018-12-26T21:39:54.845Z,15.68
2018-12-26T21:42:22.776Z,11.95
2018-12-26T21:47:32.862Z,11.48
2018-12-26T21:50:00.865Z,12.00
2018-12-26T21:52:28.891Z,11.95
2018-12-26T21:54:56.878Z,11.30
2018-12-26T21:57:24.824Z,12.40
2018-12-26T21:59:52.802Z,12.10
2018-12-26T22:02:22.610Z,12.40
2018-12-26T22:04:50.488Z,13.65
2018-12-26T22:07:18.458Z,14.30
2018-12-26T22:10:05.421Z,14.55
2018-12-26T22:12:33.471Z,13.88
2018-12-26T22:15:01.408Z,13.05
2018-12-26T22:17:29.390Z,14.60
2018-12-26T22:19:57.332Z,15.15
2018-12-26T22:22:25.313Z,16.95
2018-12-26T22:24:53.322Z,14.78
2018-12-26T22:27:21.249Z,15.93
2018-12-26T22:29:49.252Z,15.08
2018-12-26T22:32:17.171Z,16.00
2018-12-26T22:34:45.173Z,12.15
2018-12-26T22:37:13.216Z,12.23
2018-12-26T22:39:41.505Z,11.60
2018-12-26T22:42:09.557Z,13.95
2018-12-26T22:44:37.523Z,16.45
2018-12-26T22:49:48.857Z,13.05
2018-12-26T22:52:16.827Z,12.90
2018-12-26T22:54:44.761Z,14.83
2018-12-26T22:57:12.924Z,14.43
2018-12-26T22:59:40.934Z,14.23
2018-12-26T23:02:08.914Z,15.48
2018-12-26T23:04:36.957Z,13.98
2018-12-26T23:07:04.959Z,13.25
2018-12-26T23:09:32.977Z,13.38
2018-12-26T23:12:00.980Z,13.18
2018-12-26T23:14:29.802Z,11.97
2018-12-26T23:16:58.868Z,14.15
2018-12-26T23:19:26.839Z,15.88
2018-12-26T23:21:54.880Z,16.12
2018-12-26T23:24:22.883Z,17.27
2018-12-26T23:26:50.825Z,16.75
2018-12-26T23:29:18.818Z,15.88
2018-12-26T23:31:46.772Z,34.60
2018-12-26T23:34:14.732Z,15.30
2018-12-26T23:36:42.721Z,16.37
2018-12-26T23:39:10.779Z,14.33
2018-12-26T23:41:38.769Z,11.73
2018-12-26T23:44:06.719Z,11.63
2018-12-26T23:46:34.808Z,11.65
2018-12-26T23:49:02.822Z,12.40
2018-12-26T23:51:30.759Z,12.33
2018-12-26T23:53:58.764Z,12.53
2018-12-26T23:56:26.660Z,11.30
2018-12-26T23:58:54.672Z,11.95
